createdAt,value
2022-09-10T00:00:22.889Z,99.99
2022-09-10T00:01:22.906Z,99.99
2022-09-10T00:02:22.917Z,99.99
2022-09-10T00:03:22.919Z,99.99
2022-09-10T00:04:22.928Z,99.99
2022-09-10T00:05:22.918Z,99.99
2022-09-10T00:06:22.918Z,99.99
2022-09-10T00:07:22.910Z,99.99
2022-09-10T00:08:22.987Z,99.99
2022-09-10T00:09:23.045Z,99.99
2022-09-10T00:10:23.069Z,99.99
2022-09-10T00:11:23.122Z,99.99
2022-09-10T00:12:23.159Z,99.99
2022-09-10T00:13:23.881Z,99.99
2022-09-10T00:14:23.240Z,99.99
2022-09-10T00:15:23.271Z,99.99
2022-09-10T00:16:23.327Z,99.99
2022-09-10T00:17:23.362Z,99.99
2022-09-10T00:18:23.391Z,99.99
2022-09-10T00:19:23.433Z,99.99
2022-09-10T00:20:23.462Z,99.99
2022-09-10T00:21:23.501Z,99.99
2022-09-10T00:22:23.522Z,99.99
2022-09-10T00:23:23.553Z,99.99
2022-09-10T00:24:23.608Z,99.99
2022-09-10T00:25:23.673Z,99.99
2022-09-10T00:26:24.676Z,99.99
2022-09-10T00:27:23.706Z,99.99
2022-09-10T00:28:23.725Z,99.99
2022-09-10T00:29:23.787Z,99.99
2022-09-10T00:30:23.831Z,99.99
2022-09-10T00:31:23.877Z,99.99
2022-09-10T00:32:23.927Z,99.99
2022-09-10T00:33:24.656Z,99.99
2022-09-10T00:34:24.007Z,99.99
2022-09-10T00:35:24.036Z,99.99
2022-09-10T00:36:24.057Z,99.99
2022-09-10T00:37:24.089Z,99.99
2022-09-10T00:38:24.118Z,99.99
2022-09-10T00:39:24.158Z,99.99
2022-09-10T00:40:24.178Z,99.99
2022-09-10T00:41:24.231Z,99.99
2022-09-10T00:42:24.249Z,99.99
2022-09-10T00:43:24.278Z,99.99
2022-09-10T00:44:24.310Z,99.99
2022-09-10T00:45:24.379Z,99.99
2022-09-10T00:46:24.401Z,99.99
2022-09-10T00:47:24.420Z,99.99
2022-09-10T00:48:24.443Z,99.99
2022-09-10T00:49:24.471Z,99.99
2022-09-10T00:50:24.542Z,99.99
2022-09-10T00:51:24.493Z,99.99
2022-09-10T00:52:24.551Z,99.99
2022-09-10T00:53:24.622Z,99.99
2022-09-10T00:54:24.644Z,99.99
2022-09-10T00:55:24.680Z,99.99
2022-09-10T00:56:24.723Z,99.99
2022-09-10T00:57:24.743Z,99.99
2022-09-10T00:58:24.765Z,99.99
2022-09-10T00:59:24.782Z,99.99
2022-09-10T01:00:24.805Z,99.99
2022-09-10T01:01:24.835Z,99.99
2022-09-10T01:02:24.858Z,99.99
2022-09-10T01:03:25.736Z,99.99
2022-09-10T01:04:25.164Z,99.99
2022-09-10T01:05:24.867Z,99.99
2022-09-10T01:06:24.897Z,99.99
2022-09-10T01:07:24.918Z,99.99
2022-09-10T01:08:24.950Z,99.99
2022-09-10T01:09:24.968Z,99.99
2022-09-10T01:10:25.007Z,99.99
2022-09-10T01:11:25.028Z,99.99
2022-09-10T01:12:25.067Z,99.99
2022-09-10T01:13:25.092Z,99.99
2022-09-10T01:14:25.129Z,99.99
2022-09-10T01:15:25.150Z,99.99
2022-09-10T01:16:25.216Z,99.99
2022-09-10T01:17:25.229Z,99.99
2022-09-10T01:18:25.250Z,99.99
2022-09-10T01:19:25.291Z,99.99
2022-09-10T01:20:25.337Z,99.99
2022-09-10T01:21:25.351Z,99.99
2022-09-10T01:22:25.379Z,99.99
2022-09-10T01:23:25.403Z,99.99
2022-09-10T01:24:25.432Z,99.99
2022-09-10T01:25:25.453Z,99.99
2022-09-10T01:26:25.484Z,99.99
2022-09-10T01:27:25.533Z,99.99
2022-09-10T01:28:25.554Z,99.99
2022-09-10T01:29:25.583Z,99.99
2022-09-10T01:30:25.604Z,99.99
2022-09-10T01:31:25.663Z,99.99
2022-09-10T01:32:25.685Z,99.99
2022-09-10T01:33:25.715Z,99.99
2022-09-10T01:34:25.735Z,99.99
2022-09-10T01:35:25.766Z,99.99
2022-09-10T01:36:25.784Z,99.99
2022-09-10T01:37:26.054Z,99.99
2022-09-10T01:38:25.837Z,99.99
2022-09-10T01:39:25.884Z,99.99
2022-09-10T01:40:25.943Z,99.99
2022-09-10T01:41:25.973Z,99.99
2022-09-10T01:42:26.021Z,99.99
2022-09-10T01:43:26.058Z,99.99
2022-09-10T01:44:26.077Z,99.99
2022-09-10T01:45:26.153Z,99.99
2022-09-10T01:46:26.099Z,99.99
2022-09-10T01:47:26.143Z,99.99
2022-09-10T01:48:26.169Z,99.99
2022-09-10T01:49:26.190Z,99.99
2022-09-10T01:50:26.247Z,99.99
2022-09-10T01:51:26.268Z,99.99
2022-09-10T01:52:26.284Z,99.99
2022-09-10T01:53:26.323Z,99.99
2022-09-10T01:54:26.385Z,99.99
2022-09-10T01:55:26.422Z,99.99
2022-09-10T01:56:26.451Z,99.99
2022-09-10T01:57:26.682Z,99.99
2022-09-10T01:58:26.538Z,99.99
2022-09-10T01:59:26.555Z,99.99
2022-09-10T02:00:26.604Z,99.99
2022-09-10T02:01:26.633Z,99.99
2022-09-10T02:02:26.663Z,99.99
2022-09-10T02:03:26.684Z,99.99
2022-09-10T02:04:26.714Z,99.99
2022-09-10T02:05:26.744Z,99.99
2022-09-10T02:06:26.765Z,99.99
2022-09-10T02:07:26.785Z,99.99
2022-09-10T02:08:26.842Z,99.99
2022-09-10T02:09:26.876Z,99.99
2022-09-10T02:10:26.929Z,99.99
2022-09-10T02:11:26.958Z,99.99
2022-09-10T02:12:26.977Z,99.99
2022-09-10T02:13:27.007Z,99.99
2022-09-10T02:14:27.027Z,99.99
2022-09-10T02:15:27.069Z,99.99
2022-09-10T02:16:27.121Z,99.99
2022-09-10T02:17:27.169Z,99.99
2022-09-10T02:18:27.227Z,99.99
2022-09-10T02:19:27.239Z,99.99
2022-09-10T02:20:27.277Z,99.99
2022-09-10T02:21:27.304Z,99.99
2022-09-10T02:22:27.330Z,99.99
2022-09-10T02:23:27.375Z,99.99
2022-09-10T02:24:27.435Z,99.99
2022-09-10T02:25:27.462Z,99.99
2022-09-10T02:26:27.482Z,99.99
2022-09-10T02:27:27.505Z,99.99
2022-09-10T02:28:27.533Z,99.99
2022-09-10T02:29:27.552Z,99.99
2022-09-10T02:30:27.582Z,99.99
2022-09-10T02:31:27.644Z,99.99
2022-09-10T02:32:27.666Z,99.99
2022-09-10T02:33:27.694Z,99.99
2022-09-10T02:34:27.720Z,99.99
2022-09-10T02:35:27.763Z,99.99
2022-09-10T02:36:27.795Z,99.99
2022-09-10T02:37:27.825Z,99.99
2022-09-10T02:38:27.846Z,99.99
2022-09-10T02:39:27.876Z,99.99
2022-09-10T02:40:27.935Z,99.99
2022-09-10T02:41:28.686Z,99.99
2022-09-10T02:42:28.037Z,99.99
2022-09-10T02:43:28.057Z,99.99
2022-09-10T02:44:28.119Z,99.99
2022-09-10T02:45:28.165Z,99.99
2022-09-10T02:46:28.218Z,99.99
2022-09-10T02:47:28.284Z,99.99
2022-09-10T02:48:28.298Z,99.99
2022-09-10T02:49:28.321Z,99.99
2022-09-10T02:50:28.363Z,99.99
2022-09-10T02:51:28.409Z,99.99
2022-09-10T02:52:28.439Z,99.99
2022-09-10T02:53:28.473Z,99.99
2022-09-10T02:54:28.491Z,99.99
2022-09-10T02:55:29.242Z,99.99
2022-09-10T02:56:28.533Z,99.99
2022-09-10T02:57:28.572Z,99.99
2022-09-10T02:58:28.602Z,99.99
2022-09-10T02:59:28.625Z,99.99
2022-09-10T03:00:28.654Z,99.99
2022-09-10T03:01:28.736Z,99.99
2022-09-10T03:02:28.692Z,99.99
2022-09-10T03:03:28.729Z,99.99
2022-09-10T03:04:28.747Z,99.99
2022-09-10T03:05:28.804Z,99.99
2022-09-10T03:06:28.794Z,99.99
2022-09-10T03:07:28.823Z,99.99
2022-09-10T03:08:28.848Z,99.99
2022-09-10T03:09:28.934Z,99.99
2022-09-10T03:10:28.926Z,99.99
2022-09-10T03:11:28.945Z,99.99
2022-09-10T03:12:28.977Z,99.99
2022-09-10T03:13:29.006Z,99.99
2022-09-10T03:14:29.035Z,99.99
2022-09-10T03:15:29.058Z,99.99
2022-09-10T03:16:29.109Z,99.99
2022-09-10T03:17:29.068Z,99.99
2022-09-10T03:18:29.134Z,99.99
2022-09-10T03:19:29.158Z,99.99
2022-09-10T03:20:29.178Z,99.99
2022-09-10T03:21:29.241Z,99.99
2022-09-10T03:22:29.267Z,99.99
2022-09-10T03:23:29.299Z,99.99
2022-09-10T03:24:29.355Z,99.99
2022-09-10T03:25:29.370Z,99.99
2022-09-10T03:26:29.390Z,99.99
2022-09-10T03:27:29.411Z,99.99
2022-09-10T03:28:29.438Z,99.99
2022-09-10T03:29:29.502Z,99.99
2022-09-10T03:30:29.552Z,99.99
2022-09-10T03:31:29.592Z,99.99
2022-09-10T03:32:29.612Z,99.99
2022-09-10T03:33:29.641Z,99.99
2022-09-10T03:34:29.692Z,99.99
2022-09-10T03:35:29.734Z,99.99
2022-09-10T03:36:29.763Z,99.99
2022-09-10T03:37:29.793Z,99.99
2022-09-10T03:38:29.816Z,99.99
2022-09-10T03:39:29.903Z,99.99
2022-09-10T03:40:29.864Z,99.99
2022-09-10T03:41:29.905Z,99.99
2022-09-10T03:42:29.925Z,99.99
2022-09-10T03:43:29.985Z,99.99
2022-09-10T03:44:30.046Z,99.99
2022-09-10T03:45:30.122Z,99.99
2022-09-10T03:46:30.077Z,99.99
2022-09-10T03:47:30.107Z,99.99
2022-09-10T03:48:30.157Z,99.99
2022-09-10T03:49:30.187Z,99.99
2022-09-10T03:50:30.261Z,99.99
2022-09-10T03:51:30.268Z,99.99
2022-09-10T03:52:30.299Z,99.99
2022-09-10T03:53:30.328Z,99.99
2022-09-10T03:54:30.349Z,99.99
2022-09-10T03:55:30.382Z,99.99
2022-09-10T03:56:30.432Z,99.99
2022-09-10T03:57:30.459Z,99.99
2022-09-10T03:58:30.554Z,99.99
2022-09-10T03:59:30.501Z,99.99
2022-09-10T04:00:30.531Z,99.99
2022-09-10T04:01:30.574Z,99.99
2022-09-10T04:02:30.657Z,99.99
2022-09-10T04:03:30.602Z,99.99
2022-09-10T04:04:30.640Z,99.99
2022-09-10T04:05:30.674Z,99.99
2022-09-10T04:06:30.723Z,99.99
2022-09-10T04:07:30.763Z,99.99
2022-09-10T04:08:30.820Z,99.99
2022-09-10T04:09:30.902Z,99.99
2022-09-10T04:10:30.851Z,99.99
2022-09-10T04:11:30.912Z,99.99
2022-09-10T04:12:30.944Z,99.99
2022-09-10T04:13:30.995Z,99.99
2022-09-10T04:14:31.040Z,99.99
2022-09-10T04:15:31.066Z,99.99
2022-09-10T04:16:31.183Z,99.99
2022-09-10T04:17:31.152Z,99.99
2022-09-10T04:18:31.212Z,99.99
2022-09-10T04:19:31.176Z,99.99
2022-09-10T04:20:31.216Z,99.99
2022-09-10T04:21:31.267Z,99.99
2022-09-10T04:22:31.317Z,99.99
2022-09-10T04:23:31.376Z,99.99
2022-09-10T04:24:31.408Z,99.99
2022-09-10T04:25:31.458Z,99.99
2022-09-10T04:26:31.458Z,99.99
2022-09-10T04:27:31.499Z,99.99
2022-09-10T04:28:31.555Z,99.99
2022-09-10T04:29:31.553Z,99.99
2022-09-10T04:30:31.511Z,99.99
2022-09-10T04:31:31.589Z,99.99
2022-09-10T04:32:31.552Z,99.99
2022-09-10T04:33:31.742Z,99.99
2022-09-10T04:34:31.662Z,99.99
2022-09-10T04:35:31.661Z,99.99
2022-09-10T04:36:31.641Z,99.99
2022-09-10T04:37:31.702Z,99.99
2022-09-10T04:38:31.836Z,99.99
2022-09-10T04:39:31.813Z,99.99
2022-09-10T04:40:31.822Z,99.99
2022-09-10T04:41:31.823Z,99.99
2022-09-10T04:42:31.815Z,99.99
2022-09-10T04:43:31.865Z,99.99
2022-09-10T04:44:31.924Z,99.99
2022-09-10T04:45:31.991Z,99.99
2022-09-10T04:46:32.025Z,99.99
2022-09-10T04:47:32.104Z,99.99
2022-09-10T04:48:32.089Z,99.99
2022-09-10T04:49:32.139Z,99.99
2022-09-10T04:50:32.205Z,99.99
2022-09-10T04:51:32.246Z,99.99
2022-09-10T04:52:32.287Z,99.99
2022-09-10T04:53:32.338Z,99.99
2022-09-10T04:54:32.446Z,99.99
2022-09-10T04:55:32.407Z,99.99
2022-09-10T04:56:32.486Z,99.99
2022-09-10T04:57:32.508Z,99.99
2022-09-10T04:58:36.639Z,99.99
2022-09-10T04:59:32.590Z,99.99
2022-09-10T05:00:32.628Z,99.99
2022-09-10T05:01:32.687Z,99.99
2022-09-10T05:02:32.774Z,99.99
2022-09-10T05:03:32.759Z,99.99
2022-09-10T05:04:32.804Z,99.99
2022-09-10T05:05:32.850Z,99.99
2022-09-10T05:06:32.922Z,99.99
2022-09-10T05:07:32.881Z,99.99
2022-09-10T05:08:32.933Z,99.99
2022-09-10T05:09:32.983Z,99.99
2022-09-10T05:10:33.054Z,99.99
2022-09-10T05:11:33.102Z,99.99
2022-09-10T05:12:33.166Z,99.99
2022-09-10T05:13:33.154Z,99.99
2022-09-10T05:14:33.165Z,99.99
2022-09-10T05:15:33.166Z,99.99
2022-09-10T05:16:33.224Z,99.99
2022-09-10T05:17:33.194Z,99.99
2022-09-10T05:18:33.244Z,99.99
2022-09-10T05:19:33.265Z,99.99
2022-09-10T05:20:33.274Z,99.99
2022-09-10T05:21:33.283Z,99.99
2022-09-10T05:22:38.494Z,99.99
2022-09-10T05:23:33.356Z,99.99
2022-09-10T05:24:33.416Z,99.99
2022-09-10T05:25:33.388Z,99.99
2022-09-10T05:26:33.395Z,99.99
2022-09-10T05:27:33.397Z,99.99
2022-09-10T05:28:33.466Z,99.99
2022-09-10T05:29:33.478Z,99.99
2022-09-10T05:30:33.498Z,99.99
2022-09-10T05:31:33.495Z,99.99
2022-09-10T05:32:33.458Z,99.99
2022-09-10T05:33:33.478Z,99.99
2022-09-10T05:34:33.479Z,99.99
2022-09-10T05:35:33.486Z,99.99
2022-09-10T05:36:33.489Z,99.99
2022-09-10T05:37:33.499Z,99.74
2022-09-10T05:38:36.098Z,99.85
2022-09-10T05:39:33.553Z,99.85
2022-09-10T05:40:33.590Z,99.74
2022-09-10T05:41:33.650Z,99.64
2022-09-10T05:42:33.685Z,99.60
2022-09-10T05:43:33.712Z,99.39
2022-09-10T05:44:33.760Z,99.19
2022-09-10T05:45:33.851Z,99.49
2022-09-10T05:46:33.805Z,99.29
2022-09-10T05:47:33.832Z,98.84
2022-09-10T05:48:33.887Z,98.54
2022-09-10T05:49:33.944Z,98.33
2022-09-10T05:50:33.993Z,98.13
2022-09-10T05:51:33.984Z,98.14
2022-09-10T05:52:33.984Z,95.37
2022-09-10T05:53:34.034Z,93.55
2022-09-10T05:54:34.116Z,93.39
2022-09-10T05:55:34.103Z,92.88
2022-09-10T05:56:34.156Z,93.39
2022-09-10T05:57:34.217Z,94.06
2022-09-10T05:58:34.247Z,92.40
2022-09-10T05:59:34.239Z,91.34
2022-09-10T06:00:34.208Z,90.30
2022-09-10T06:01:34.275Z,87.32
2022-09-10T06:02:34.363Z,88.77
2022-09-10T06:03:34.359Z,89.56
2022-09-10T06:04:34.378Z,90.21
2022-09-10T06:05:34.359Z,91.22
2022-09-10T06:06:34.429Z,91.32
2022-09-10T06:07:34.410Z,91.30
2022-09-10T06:08:34.431Z,88.99
2022-09-10T06:09:34.481Z,85.82
2022-09-10T06:10:34.531Z,87.07
2022-09-10T06:11:34.671Z,87.41
2022-09-10T06:12:34.643Z,88.21
2022-09-10T06:13:34.721Z,89.52
2022-09-10T06:14:34.725Z,90.12
2022-09-10T06:15:34.736Z,88.68
2022-09-10T06:16:34.809Z,86.87
2022-09-10T06:17:34.774Z,87.52
2022-09-10T06:18:34.901Z,87.96
2022-09-10T06:19:34.884Z,89.01
2022-09-10T06:20:34.955Z,90.07
2022-09-10T06:21:34.985Z,90.67
2022-09-10T06:22:35.744Z,91.42
2022-09-10T06:23:35.095Z,92.08
2022-09-10T06:24:35.117Z,92.38
2022-09-10T06:25:35.168Z,92.63
2022-09-10T06:26:35.211Z,92.93
2022-09-10T06:27:35.918Z,93.33
2022-09-10T06:28:35.348Z,93.54
2022-09-10T06:29:35.309Z,93.33
2022-09-10T06:30:35.398Z,93.63
2022-09-10T06:31:35.409Z,93.63
2022-09-10T06:32:35.478Z,93.63
2022-09-10T06:33:35.469Z,93.29
2022-09-10T06:34:35.461Z,93.04
2022-09-10T06:35:35.451Z,91.85
2022-09-10T06:36:35.471Z,88.54
2022-09-10T06:37:35.520Z,84.49
2022-09-10T06:38:35.492Z,83.04
2022-09-10T06:39:35.584Z,81.52
2022-09-10T06:40:35.553Z,79.27
2022-09-10T06:41:35.563Z,78.29
2022-09-10T06:42:35.565Z,76.87
2022-09-10T06:43:35.557Z,74.93
2022-09-10T06:44:35.614Z,73.10
2022-09-10T06:45:36.552Z,73.30
2022-09-10T06:48:41.351Z,72.26
2022-09-10T06:49:35.846Z,71.42
2022-09-10T06:50:35.857Z,70.26
2022-09-10T06:51:35.860Z,69.76
2022-09-10T06:52:36.042Z,70.43
2022-09-10T06:53:35.909Z,71.09
2022-09-10T06:54:35.929Z,74.10
2022-09-10T06:55:35.910Z,75.31
2022-09-10T06:56:36.072Z,74.74
2022-09-10T06:57:36.076Z,75.82
2022-09-10T06:58:36.118Z,76.45
2022-09-10T06:59:36.024Z,77.56
2022-09-10T07:00:36.032Z,76.89
2022-09-10T07:01:36.161Z,76.92
2022-09-10T07:02:36.102Z,78.30
2022-09-10T07:03:36.186Z,80.02
2022-09-10T07:04:36.128Z,82.48
2022-09-10T07:05:36.144Z,82.62
2022-09-10T07:06:36.198Z,83.97
2022-09-10T07:07:36.296Z,84.51
2022-09-10T07:08:36.290Z,84.51
2022-09-10T07:09:36.249Z,85.46
2022-09-10T07:10:36.957Z,86.30
2022-09-10T07:11:41.229Z,86.30
2022-09-10T07:12:36.353Z,85.70
2022-09-10T07:13:36.365Z,85.90
2022-09-10T07:14:36.380Z,86.21
2022-09-10T07:15:36.453Z,86.35
2022-09-10T07:16:36.383Z,86.75
2022-09-10T07:17:36.389Z,86.15
2022-09-10T07:18:36.434Z,86.75
2022-09-10T07:19:36.452Z,87.05
2022-09-10T07:20:36.497Z,86.90
2022-09-10T07:21:36.600Z,86.99
2022-09-10T07:22:36.451Z,87.90
2022-09-10T07:23:36.512Z,87.50
2022-09-10T07:24:36.513Z,88.51
2022-09-10T07:25:37.520Z,88.01
2022-09-10T07:26:36.603Z,88.41
2022-09-10T07:27:37.254Z,88.37
2022-09-10T07:28:36.661Z,87.56
2022-09-10T07:29:36.617Z,87.66
2022-09-10T07:30:36.658Z,87.81
2022-09-10T07:31:36.653Z,87.81
2022-09-10T07:32:36.755Z,87.54
2022-09-10T07:33:36.737Z,88.25
2022-09-10T07:34:36.821Z,89.01
2022-09-10T07:35:36.767Z,88.01
2022-09-10T07:36:36.859Z,88.21
2022-09-10T07:37:36.868Z,87.50
2022-09-10T07:38:36.853Z,87.90
2022-09-10T07:39:36.956Z,87.96
2022-09-10T07:40:36.953Z,87.10
2022-09-10T07:41:36.975Z,87.46
2022-09-10T07:42:36.979Z,86.85
2022-09-10T07:43:37.795Z,85.94
2022-09-10T07:44:37.073Z,86.21
2022-09-10T07:45:37.120Z,85.70
2022-09-10T07:46:37.124Z,85.46
2022-09-10T07:47:37.189Z,85.16
2022-09-10T07:48:37.185Z,85.28
2022-09-10T07:49:38.089Z,82.07
2022-09-10T07:50:37.432Z,81.29
2022-09-10T07:51:37.294Z,79.68
2022-09-10T07:52:37.313Z,79.99
2022-09-10T07:53:37.384Z,80.69
2022-09-10T07:54:37.382Z,78.40
2022-09-10T07:55:37.379Z,78.14
2022-09-10T07:56:37.414Z,79.58
2022-09-10T07:57:37.497Z,79.79
2022-09-10T07:58:37.618Z,79.92
2022-09-10T07:59:37.570Z,81.57
2022-09-10T08:00:37.477Z,82.11
2022-09-10T08:01:37.643Z,82.56
2022-09-10T08:02:37.593Z,83.76
2022-09-10T08:03:37.541Z,84.57
2022-09-10T08:04:37.657Z,82.86
2022-09-10T08:05:37.659Z,84.07
2022-09-10T08:06:37.649Z,84.21
2022-09-10T08:07:37.710Z,85.25
2022-09-10T08:08:37.779Z,86.27
2022-09-10T08:09:37.741Z,85.90
2022-09-10T08:10:37.723Z,86.71
2022-09-10T08:11:37.813Z,87.36
2022-09-10T08:12:37.870Z,87.26
2022-09-10T08:13:37.880Z,88.06
2022-09-10T08:14:37.897Z,87.86
2022-09-10T08:15:38.023Z,88.06
2022-09-10T08:16:41.311Z,88.61
2022-09-10T08:17:38.095Z,88.10
2022-09-10T08:18:38.278Z,89.01
2022-09-10T08:19:38.110Z,89.42
2022-09-10T08:20:38.185Z,89.22
2022-09-10T08:21:38.203Z,89.52
2022-09-10T08:22:38.195Z,89.83
2022-09-10T08:23:38.240Z,89.83
2022-09-10T08:24:38.218Z,89.72
2022-09-10T08:25:38.587Z,89.32
2022-09-10T08:26:38.334Z,89.32
2022-09-10T08:27:38.318Z,89.42
2022-09-10T08:28:38.561Z,89.16
2022-09-10T08:29:38.372Z,89.52
2022-09-10T08:30:38.428Z,88.96
2022-09-10T08:31:38.416Z,89.56
2022-09-10T08:32:38.400Z,89.22
2022-09-10T08:33:38.475Z,89.62
2022-09-10T08:34:38.471Z,89.42
2022-09-10T08:35:38.408Z,89.22
2022-09-10T08:36:38.449Z,89.52
2022-09-10T08:37:38.517Z,90.23
2022-09-10T08:38:38.608Z,89.07
2022-09-10T08:39:38.639Z,88.97
2022-09-10T08:40:38.601Z,89.37
2022-09-10T08:41:38.632Z,88.77
2022-09-10T08:42:38.716Z,88.97
2022-09-10T08:43:38.706Z,87.96
2022-09-10T08:44:38.684Z,88.87
2022-09-10T08:45:38.739Z,88.81
2022-09-10T08:46:38.716Z,88.31
2022-09-10T08:47:38.746Z,89.01
2022-09-10T08:48:38.892Z,89.52
2022-09-10T08:49:38.841Z,88.92
2022-09-10T08:50:38.948Z,88.97
2022-09-10T08:51:38.929Z,88.47
2022-09-10T08:52:38.993Z,88.83
2022-09-10T08:53:39.046Z,88.53
2022-09-10T08:54:39.049Z,88.39
2022-09-10T08:55:39.079Z,88.14
2022-09-10T08:56:39.140Z,86.08
2022-09-10T08:57:39.221Z,85.52
2022-09-10T08:58:39.335Z,85.62
2022-09-10T08:59:39.180Z,85.22
2022-09-10T09:00:39.241Z,84.91
2022-09-10T09:01:39.398Z,84.77
2022-09-10T09:02:48.728Z,84.57
2022-09-10T09:03:39.311Z,85.28
2022-09-10T09:04:39.370Z,86.29
2022-09-10T09:05:39.430Z,85.02
2022-09-10T09:06:39.462Z,85.88
2022-09-10T09:07:39.531Z,86.69
2022-09-10T09:08:39.605Z,85.64
2022-09-10T09:09:39.542Z,84.69
2022-09-10T09:10:39.593Z,84.85
2022-09-10T09:11:39.662Z,82.54
2022-09-10T09:12:39.722Z,83.14
2022-09-10T09:13:39.783Z,82.34
2022-09-10T09:14:39.864Z,82.14
2022-09-10T09:15:39.946Z,82.44
2022-09-10T09:16:39.915Z,83.59
2022-09-10T09:17:39.994Z,83.08
2022-09-10T09:18:40.137Z,84.23
2022-09-10T09:19:40.020Z,84.74
2022-09-10T09:20:40.009Z,84.77
2022-09-10T09:21:40.066Z,84.67
2022-09-10T09:22:40.228Z,85.17
2022-09-10T09:23:56.847Z,85.98
2022-09-10T09:24:40.170Z,85.14
2022-09-10T09:25:40.198Z,84.43
2022-09-10T09:26:40.230Z,84.07
2022-09-10T09:27:40.259Z,84.77
2022-09-10T09:28:40.375Z,85.38
2022-09-10T09:29:40.390Z,85.03
2022-09-10T09:30:40.430Z,85.40
2022-09-10T09:31:40.481Z,84.89
2022-09-10T09:32:40.521Z,82.94
2022-09-10T09:33:40.591Z,82.44
2022-09-10T09:34:40.681Z,81.84
2022-09-10T09:35:40.652Z,81.93
2022-09-10T09:36:40.732Z,82.38
2022-09-10T09:37:40.712Z,82.34
2022-09-10T09:38:40.892Z,82.54
2022-09-10T09:39:40.853Z,80.79
2022-09-10T09:40:40.884Z,80.49
2022-09-10T09:41:40.935Z,80.73
2022-09-10T09:42:40.985Z,81.43
2022-09-10T09:43:41.066Z,82.54
2022-09-10T09:44:41.036Z,82.44
2022-09-10T09:45:41.129Z,81.87
2022-09-10T09:46:41.116Z,83.08
2022-09-10T09:47:41.147Z,83.22
2022-09-10T09:48:41.432Z,83.83
2022-09-10T09:49:41.249Z,84.53
2022-09-10T09:50:41.298Z,85.94
2022-09-10T09:51:41.329Z,84.83
2022-09-10T09:52:41.358Z,84.97
2022-09-10T09:53:45.114Z,85.88
2022-09-10T09:55:12.736Z,84.77
2022-09-10T09:55:41.473Z,86.18
2022-09-10T09:56:41.502Z,85.98
2022-09-10T09:57:41.541Z,85.88
2022-09-10T09:58:41.581Z,85.88
2022-09-10T09:59:41.619Z,85.68
2022-09-10T10:00:41.633Z,85.28
2022-09-10T10:01:41.686Z,85.78
2022-09-10T10:02:41.746Z,85.08
2022-09-10T10:03:41.793Z,85.58
2022-09-10T10:04:42.429Z,85.48
2022-09-10T10:05:41.914Z,85.58
2022-09-10T10:06:41.925Z,85.78
2022-09-10T10:07:41.984Z,86.58
2022-09-10T10:08:42.035Z,86.55
2022-09-10T10:09:42.085Z,85.64
2022-09-10T10:10:42.984Z,85.14
2022-09-10T10:11:42.197Z,84.74
2022-09-10T10:12:42.247Z,84.33
2022-09-10T10:13:42.227Z,83.99
2022-09-10T10:14:42.289Z,83.59
2022-09-10T10:15:42.465Z,82.84
2022-09-10T10:16:42.349Z,82.97
2022-09-10T10:17:42.420Z,81.32
2022-09-10T10:18:42.514Z,80.21
2022-09-10T10:19:42.479Z,79.87
2022-09-10T10:20:42.469Z,78.45
2022-09-10T10:21:42.478Z,75.97
2022-09-10T10:22:42.504Z,75.34
2022-09-10T10:23:42.503Z,74.30
2022-09-10T10:24:42.521Z,72.76
2022-09-10T10:25:42.530Z,71.79
2022-09-10T10:26:42.532Z,71.69
2022-09-10T10:27:42.552Z,69.73
2022-09-10T10:28:42.562Z,71.29
2022-09-10T10:29:42.604Z,71.36
2022-09-10T10:30:42.678Z,69.82
2022-09-10T10:31:42.658Z,68.23
2022-09-10T10:32:42.728Z,67.36
2022-09-10T10:33:42.755Z,70.06
2022-09-10T10:34:42.743Z,69.56
2022-09-10T10:35:42.807Z,69.16
2022-09-10T10:36:42.806Z,69.62
2022-09-10T10:37:42.837Z,72.46
2022-09-10T10:38:42.858Z,72.19
2022-09-10T10:39:42.866Z,72.13
2022-09-10T10:40:42.889Z,70.26
2022-09-10T10:41:42.949Z,72.26
2022-09-10T10:42:42.980Z,72.66
2022-09-10T10:43:43.058Z,70.26
2022-09-10T10:44:43.062Z,70.23
2022-09-10T10:45:43.081Z,69.32
2022-09-10T10:46:43.181Z,69.09
2022-09-10T10:47:43.103Z,68.13
2022-09-10T10:48:43.143Z,68.52
2022-09-10T10:49:43.161Z,69.06
2022-09-10T10:50:43.166Z,69.46
2022-09-10T10:51:43.182Z,69.56
2022-09-10T10:52:47.227Z,69.39
2022-09-10T10:53:43.283Z,70.69
2022-09-10T10:54:43.355Z,69.16
2022-09-10T10:55:43.342Z,68.73
2022-09-10T10:56:43.308Z,67.99
2022-09-10T10:57:43.326Z,66.40
2022-09-10T10:58:43.330Z,64.87
2022-09-10T10:59:43.338Z,65.44
2022-09-10T11:00:43.399Z,65.41
2022-09-10T11:01:43.425Z,65.07
2022-09-10T11:02:43.478Z,67.19
2022-09-10T11:03:43.409Z,69.79
2022-09-10T11:04:43.479Z,67.23
2022-09-10T11:05:43.560Z,68.09
2022-09-10T11:06:43.560Z,68.96
2022-09-10T11:07:43.540Z,70.59
2022-09-10T11:08:43.593Z,71.00
2022-09-10T11:09:43.655Z,70.09
2022-09-10T11:10:43.723Z,71.12
2022-09-10T11:11:43.799Z,71.83
2022-09-10T11:12:43.837Z,71.16
2022-09-10T11:13:43.903Z,73.57
2022-09-10T11:14:43.925Z,73.53
2022-09-10T11:15:44.018Z,72.43
2022-09-10T11:16:43.975Z,70.93
2022-09-10T11:17:43.986Z,71.39
2022-09-10T11:18:44.066Z,71.03
2022-09-10T11:19:44.036Z,70.62
2022-09-10T11:20:44.122Z,70.79
2022-09-10T11:21:44.109Z,70.50
2022-09-10T11:22:44.159Z,71.00
2022-09-10T11:23:44.240Z,69.79
2022-09-10T11:24:44.217Z,70.93
2022-09-10T11:25:44.280Z,70.43
2022-09-10T11:26:44.341Z,70.09
2022-09-10T11:27:44.391Z,70.69
2022-09-10T11:28:44.430Z,69.02
2022-09-10T11:29:44.431Z,70.12
2022-09-10T11:30:44.406Z,71.36
2022-09-10T11:31:44.462Z,71.86
2022-09-10T11:32:44.514Z,72.43
2022-09-10T11:33:44.597Z,71.00
2022-09-10T11:34:44.593Z,69.09
2022-09-10T11:35:44.695Z,69.79
2022-09-10T11:36:46.275Z,69.73
2022-09-10T11:37:44.748Z,69.79
2022-09-10T11:38:44.824Z,71.36
2022-09-10T11:39:44.954Z,70.23
2022-09-10T11:40:44.957Z,68.99
2022-09-10T11:41:45.004Z,68.46
2022-09-10T11:42:45.055Z,67.26
2022-09-10T11:43:45.126Z,66.99
2022-09-10T11:44:45.118Z,67.16
2022-09-10T11:45:45.198Z,66.46
2022-09-10T11:46:45.259Z,66.83
2022-09-10T11:47:45.248Z,64.90
2022-09-10T11:48:45.300Z,63.77
2022-09-10T11:49:45.349Z,64.60
2022-09-10T11:50:45.400Z,65.83
2022-09-10T11:51:45.411Z,67.43
2022-09-10T11:52:45.372Z,66.23
2022-09-10T11:53:45.433Z,65.73
2022-09-10T11:54:45.505Z,65.63
2022-09-10T11:55:45.543Z,64.66
2022-09-10T11:56:45.784Z,67.09
2022-09-10T11:57:45.664Z,64.49
2022-09-10T11:58:45.729Z,65.29
2022-09-10T11:59:45.906Z,65.72
2022-09-10T12:00:45.875Z,66.66
2022-09-10T12:01:45.893Z,66.96
2022-09-10T12:02:46.007Z,68.96
2022-09-10T12:03:45.912Z,66.96
2022-09-10T12:04:47.697Z,68.05
2022-09-10T12:05:45.937Z,66.75
2022-09-10T12:06:45.993Z,67.59
2022-09-10T12:07:46.039Z,69.69
2022-09-10T12:08:46.090Z,69.02
2022-09-10T12:09:46.140Z,69.93
2022-09-10T12:10:46.182Z,70.26
2022-09-10T12:11:46.241Z,69.99
2022-09-10T12:12:46.265Z,70.53
2022-09-10T12:13:46.282Z,71.43
2022-09-10T12:14:46.335Z,71.20
2022-09-10T12:15:46.406Z,71.00
2022-09-10T12:16:46.613Z,71.09
2022-09-10T12:17:46.372Z,71.59
2022-09-10T12:18:46.408Z,71.30
2022-09-10T12:19:46.443Z,71.59
2022-09-10T12:20:46.474Z,72.00
2022-09-10T12:21:46.564Z,71.30
2022-09-10T12:22:46.615Z,69.99
2022-09-10T12:23:46.656Z,70.89
2022-09-10T12:24:46.688Z,71.20
2022-09-10T12:25:46.726Z,70.32
2022-09-10T12:26:46.787Z,71.03
2022-09-10T12:27:46.856Z,71.53
2022-09-10T12:28:46.899Z,71.83
2022-09-10T12:29:46.920Z,71.83
2022-09-10T12:30:47.024Z,70.86
2022-09-10T12:31:47.037Z,70.96
2022-09-10T12:32:47.059Z,71.47
2022-09-10T12:33:47.124Z,72.71
2022-09-10T12:34:47.190Z,71.80
2022-09-10T12:35:47.161Z,72.20
2022-09-10T12:36:47.191Z,74.15
2022-09-10T12:37:47.255Z,73.54
2022-09-10T12:38:47.301Z,75.35
2022-09-10T12:39:47.317Z,76.89
2022-09-10T12:40:47.362Z,77.90
2022-09-10T12:41:47.436Z,79.35
2022-09-10T12:42:47.404Z,79.79
2022-09-10T12:43:47.444Z,80.39
2022-09-10T12:44:47.463Z,81.03
2022-09-10T12:45:47.506Z,81.57
2022-09-10T12:46:47.559Z,81.87
2022-09-10T12:47:47.574Z,82.07
2022-09-10T12:48:47.597Z,82.31
2022-09-10T12:49:47.627Z,83.72
2022-09-10T12:50:47.677Z,82.92
2022-09-10T12:51:47.735Z,84.33
2022-09-10T12:52:47.776Z,83.83
2022-09-10T12:53:47.757Z,85.24
2022-09-10T12:54:48.746Z,85.48